Lagoon City, Ontario

Past 24 Hour Conditions

Date / Time
(EST)
Conditions Temp
(°F)
Humidity
(%)
Dew Point
(°F)
Wind
(mph)
Pressure
(inches)
Vis
(mi)
Wind Chill
27 November 2014
14:00 N/A 27 69 19 NNW 8 30.0 N/A 19
13:00 N/A 26 71 19 WNW 6 30.0 N/A 20
12:00 N/A 25 75 19 WNW 4 30.1 N/A 21
11:00 N/A 25 74 18 NNW 2 30.1 N/A 23
10:00 N/A 24 79 19 NNW 2 30.1 N/A 22
9:00 N/A 23 87 20 NE 4 30.1 N/A 18
8:00 N/A 21 92 19 NNE 4 30.1 N/A 15
7:00 N/A 20   92 18 NE 5 30.1 N/A 13
6:00 N/A 20   93 19 NE 4 30.1 N/A 14
5:00 N/A 21 92 19 NNE 4 30.1 N/A 15
4:00 N/A 22 88 19 ENE 2 30.1 N/A 19
3:00 N/A 22 86 19 ENE 3 30.1 N/A 18
2:00 N/A 22 83 18 NE 4 30.1 N/A 16
1:00 N/A 24 79 18 NE 5 30.1 N/A 17
00:00 N/A 26 74 18 NE 9 30.1 N/A 17
26 November 2014
23:00 N/A 27 74 20 ENE 8 30.1 N/A 19
22:00 N/A 28 71 20 NE 8 30.1 N/A 21
21:00 N/A 30 66 20 NE 8 30.1 N/A 22
20:00 N/A 30 66 20 NE 7 30.1 N/A 23
19:00 N/A 31 63 20 NNE 7 30.1 N/A 24
18:00 N/A 31 68 22 N 6 30.1 N/A 25
17:00 N/A 32   69 23 NNE 4 30.1 N/A 27
16:00 N/A 32   68 23 ENE 2 30.2 N/A *
15:00 N/A 32   68 23 NE 4 30.2 N/A *
14:00 N/A 32   69 23 ENE 3 30.2 N/A *
N/A Not available
↑ Highest temperature
↓ Lowest temperature
* Value not significant.

If you require additional historical weather information, please visit Climate Data Online.

Date modified: